Aérodrome :
LOGIN :

S'inscrire | Disclaimer

   EN    FR    IT 

 










Légende :    VFR   VFR Marginal   IFR   IFR Intensif   IFR Très Intensif
Visi : 
Plafond : 
>= 8 km
>= 3000ft
5 à 8 km
1000 à 3000 ft
1500m à 5 km
500 à 1000 ft
800 à 1500m
200 à 500 ft
< 800m
< 200 ft
Symboles :   Orages  Brouillard  Fortes neiges  Fortes précipitations  Vent > 20 kt
SIGMETs :   Divers  Orages  Givrage  Turbulence  Onde Orograph.  Cendres Volcan.







- Altitude de l'aérodrome : 26 ft
- Code IATA : SYY
- Voir les cartes d'approche


EGPO - Stornoway

DERNIER METAR :
  • 200820Z 30010KT 9999 SCT006 BKN026 10/10 Q0999

METARs EXPIRÉS :
  • 200750Z 31012KT 7000 -RADZ SCT006 BKN018 10/10 Q0998
  • 200720Z 30012KT 4000 -RADZ BR FEW004 SCT008 BKN014 10/10 Q0998
  • 200650Z 31012KT 4500 -RADZ SCT004 BKN014 11/10 Q0997
  • 200620Z 31010KT 5000 -RADZ FEW006 SCT014 BKN022 11/11 Q0997

TAF TAF EGPO
Valide du 20 à 09h jusqu'au 20 à 18h UTC


200801Z 2009/2018 31010KT 9999 FEW020
PROB40
TEMPO 2009/2018 7000 -RA BKN009
BECMG 2012/2015 07009KT
ATIS : +44 1851 707 444
Pas de NOTAMs connus pour ce terrain.



MET'MAP, la Météo Aéronautique d'un coup d'oeil ! - Copyright ORBIFLY Décembre 2007 - Disclaimer

ORBIFLY MET'MAP TEAM :

Programmation & Développement : Alexandra Zaïnal
Conception & Développement : Baudouin d'Aumeries
Co-Programmation & Développement : Marc-Olivier Méhu
Soutien technique & logistique : Manuel Goepfert

Contact : metmap@orbifly.com




SOURCES & CREDITS :

   NOAA